sensor_id;sensor_type;location;lat;lon;timestamp;P1;durP1;ratioP1;P2;durP2;ratioP2
73779;SDS011;62093;37.614;15.072;2022-09-09T00:04:58;8.77;;;3.17;;
73779;SDS011;62093;37.614;15.072;2022-09-09T00:07:16;7.47;;;3.15;;
73779;SDS011;62093;37.614;15.072;2022-09-09T00:09:48;8.80;;;3.03;;
73779;SDS011;62093;37.614;15.072;2022-09-09T00:15:17;9.17;;;2.90;;
73779;SDS011;62093;37.614;15.072;2022-09-09T00:20:24;5.95;;;3.10;;
73779;SDS011;62093;37.614;15.072;2022-09-09T00:22:58;6.80;;;3.15;;
73779;SDS011;62093;37.614;15.072;2022-09-09T00:26:20;7.50;;;3.30;;
73779;SDS011;62093;37.614;15.072;2022-09-09T00:28:41;9.13;;;3.00;;
73779;SDS011;62093;37.614;15.072;2022-09-09T00:31:18;8.10;;;3.10;;
73779;SDS011;62093;37.614;15.072;2022-09-09T00:33:49;7.72;;;3.20;;
73779;SDS011;62093;37.614;15.072;2022-09-09T00:36:17;9.02;;;3.30;;
73779;SDS011;62093;37.614;15.072;2022-09-09T00:38:48;7.35;;;2.97;;
73779;SDS011;62093;37.614;15.072;2022-09-09T00:41:38;6.17;;;2.60;;
73779;SDS011;62093;37.614;15.072;2022-09-09T00:50:11;9.43;;;2.90;;
73779;SDS011;62093;37.614;15.072;2022-09-09T00:52:47;9.38;;;2.72;;
73779;SDS011;62093;37.614;15.072;2022-09-09T00:57:53;6.72;;;2.70;;
73779;SDS011;62093;37.614;15.072;2022-09-09T01:00:26;7.57;;;2.70;;
73779;SDS011;62093;37.614;15.072;2022-09-09T01:05:45;7.97;;;2.55;;
73779;SDS011;62093;37.614;15.072;2022-09-09T01:11:22;8.13;;;3.20;;
73779;SDS011;62093;37.614;15.072;2022-09-09T01:13:56;8.48;;;2.80;;
73779;SDS011;62093;37.614;15.072;2022-09-09T01:16:43;6.10;;;2.50;;
73779;SDS011;62093;37.614;15.072;2022-09-09T01:19:12;9.50;;;2.85;;
73779;SDS011;62093;37.614;15.072;2022-09-09T01:21:54;8.53;;;2.50;;
73779;SDS011;62093;37.614;15.072;2022-09-09T01:24:40;6.47;;;2.60;;
73779;SDS011;62093;37.614;15.072;2022-09-09T01:27:22;7.85;;;2.88;;
73779;SDS011;62093;37.614;15.072;2022-09-09T01:29:49;7.85;;;2.80;;
73779;SDS011;62093;37.614;15.072;2022-09-09T01:38:15;10.73;;;2.60;;
73779;SDS011;62093;37.614;15.072;2022-09-09T01:40:42;7.53;;;3.03;;
73779;SDS011;62093;37.614;15.072;2022-09-09T01:43:08;7.43;;;2.88;;
73779;SDS011;62093;37.614;15.072;2022-09-09T01:45:35;7.90;;;2.80;;
73779;SDS011;62093;37.614;15.072;2022-09-09T01:48:02;7.90;;;2.63;;
73779;SDS011;62093;37.614;15.072;2022-09-09T01:50:57;8.38;;;2.38;;
73779;SDS011;62093;37.614;15.072;2022-09-09T01:53:23;7.68;;;2.53;;
73779;SDS011;62093;37.614;15.072;2022-09-09T01:56:00;7.55;;;3.03;;
73779;SDS011;62093;37.614;15.072;2022-09-09T01:58:40;9.60;;;2.83;;
73779;SDS011;62093;37.614;15.072;2022-09-09T02:01:26;8.33;;;2.60;;
73779;SDS011;62093;37.614;15.072;2022-09-09T02:04:03;8.07;;;2.60;;
73779;SDS011;62093;37.614;15.072;2022-09-09T02:06:41;10.93;;;2.78;;
73779;SDS011;62093;37.614;15.072;2022-09-09T02:09:19;10.68;;;3.05;;
73779;SDS011;62093;37.614;15.072;2022-09-09T02:11:50;8.93;;;2.70;;
73779;SDS011;62093;37.614;15.072;2022-09-09T02:14:46;7.10;;;2.73;;
73779;SDS011;62093;37.614;15.072;2022-09-09T02:17:19;7.53;;;2.75;;
73779;SDS011;62093;37.614;15.072;2022-09-09T02:20:04;7.65;;;2.25;;
73779;SDS011;62093;37.614;15.072;2022-09-09T02:22:54;8.90;;;2.85;;
73779;SDS011;62093;37.614;15.072;2022-09-09T02:25:24;8.65;;;2.20;;
73779;SDS011;62093;37.614;15.072;2022-09-09T02:27:57;11.93;;;2.80;;
73779;SDS011;62093;37.614;15.072;2022-09-09T02:30:24;8.15;;;2.60;;
73779;SDS011;62093;37.614;15.072;2022-09-09T02:32:55;8.05;;;2.55;;
73779;SDS011;62093;37.614;15.072;2022-09-09T02:35:36;7.53;;;2.80;;
73779;SDS011;62093;37.614;15.072;2022-09-09T02:38:06;6.50;;;2.13;;
73779;SDS011;62093;37.614;15.072;2022-09-09T02:40:37;7.13;;;2.27;;
73779;SDS011;62093;37.614;15.072;2022-09-09T02:43:03;8.48;;;2.75;;
73779;SDS011;62093;37.614;15.072;2022-09-09T02:45:34;8.50;;;2.53;;
73779;SDS011;62093;37.614;15.072;2022-09-09T02:48:20;7.63;;;2.38;;
73779;SDS011;62093;37.614;15.072;2022-09-09T02:51:16;8.10;;;2.90;;
73779;SDS011;62093;37.614;15.072;2022-09-09T02:54:09;8.50;;;2.47;;
73779;SDS011;62093;37.614;15.072;2022-09-09T02:56:44;8.18;;;2.80;;
73779;SDS011;62093;37.614;15.072;2022-09-09T02:59:16;10.23;;;2.60;;
73779;SDS011;62093;37.614;15.072;2022-09-09T03:01:42;8.75;;;2.35;;
73779;SDS011;62093;37.614;15.072;2022-09-09T03:04:09;7.43;;;2.00;;
73779;SDS011;62093;37.614;15.072;2022-09-09T03:06:36;8.43;;;2.50;;
73779;SDS011;62093;37.614;15.072;2022-09-09T03:09:12;7.57;;;2.30;;
73779;SDS011;62093;37.614;15.072;2022-09-09T03:11:38;7.80;;;2.78;;
73779;SDS011;62093;37.614;15.072;2022-09-09T03:14:05;7.10;;;2.22;;
73779;SDS011;62093;37.614;15.072;2022-09-09T03:16:31;9.13;;;2.13;;
73779;SDS011;62093;37.614;15.072;2022-09-09T03:19:00;7.97;;;2.30;;
73779;SDS011;62093;37.614;15.072;2022-09-09T03:21:27;7.25;;;2.08;;
73779;SDS011;62093;37.614;15.072;2022-09-09T03:23:53;7.93;;;2.58;;
73779;SDS011;62093;37.614;15.072;2022-09-09T03:26:20;7.28;;;2.28;;
73779;SDS011;62093;37.614;15.072;2022-09-09T03:28:46;6.73;;;2.03;;
73779;SDS011;62093;37.614;15.072;2022-09-09T03:31:16;10.13;;;2.15;;
73779;SDS011;62093;37.614;15.072;2022-09-09T03:33:42;7.80;;;2.70;;
73779;SDS011;62093;37.614;15.072;2022-09-09T03:36:11;9.02;;;2.47;;
73779;SDS011;62093;37.614;15.072;2022-09-09T03:38:38;8.63;;;2.17;;
73779;SDS011;62093;37.614;15.072;2022-09-09T03:41:04;8.05;;;2.38;;
73779;SDS011;62093;37.614;15.072;2022-09-09T03:43:33;7.32;;;2.20;;
73779;SDS011;62093;37.614;15.072;2022-09-09T03:46:00;7.65;;;2.13;;
73779;SDS011;62093;37.614;15.072;2022-09-09T03:48:28;6.53;;;2.33;;
73779;SDS011;62093;37.614;15.072;2022-09-09T03:50:55;8.10;;;2.27;;
73779;SDS011;62093;37.614;15.072;2022-09-09T03:53:26;9.20;;;2.35;;
73779;SDS011;62093;37.614;15.072;2022-09-09T03:55:53;8.07;;;2.15;;
73779;SDS011;62093;37.614;15.072;2022-09-09T03:58:22;8.43;;;2.30;;
73779;SDS011;62093;37.614;15.072;2022-09-09T04:01:03;7.95;;;2.50;;
73779;SDS011;62093;37.614;15.072;2022-09-09T04:03:39;6.37;;;2.30;;
73779;SDS011;62093;37.614;15.072;2022-09-09T04:06:06;8.60;;;2.40;;
73779;SDS011;62093;37.614;15.072;2022-09-09T04:08:41;8.65;;;2.47;;
73779;SDS011;62093;37.614;15.072;2022-09-09T04:11:07;8.02;;;2.15;;
73779;SDS011;62093;37.614;15.072;2022-09-09T04:13:35;6.97;;;2.22;;
73779;SDS011;62093;37.614;15.072;2022-09-09T04:16:07;7.43;;;2.30;;
73779;SDS011;62093;37.614;15.072;2022-09-09T04:18:35;7.90;;;2.08;;
73779;SDS011;62093;37.614;15.072;2022-09-09T04:21:02;9.63;;;2.72;;
73779;SDS011;62093;37.614;15.072;2022-09-09T04:23:30;8.25;;;2.15;;
73779;SDS011;62093;37.614;15.072;2022-09-09T04:25:58;7.80;;;2.30;;
73779;SDS011;62093;37.614;15.072;2022-09-09T04:28:27;7.83;;;2.60;;
73779;SDS011;62093;37.614;15.072;2022-09-09T04:30:57;6.93;;;2.25;;
73779;SDS011;62093;37.614;15.072;2022-09-09T04:33:29;6.00;;;2.45;;
73779;SDS011;62093;37.614;15.072;2022-09-09T04:35:56;9.20;;;2.35;;
73779;SDS011;62093;37.614;15.072;2022-09-09T04:38:24;8.02;;;2.10;;
73779;SDS011;62093;37.614;15.072;2022-09-09T04:40:52;6.87;;;2.43;;
73779;SDS011;62093;37.614;15.072;2022-09-09T04:43:20;8.25;;;2.40;;
73779;SDS011;62093;37.614;15.072;2022-09-09T04:45:46;7.75;;;2.17;;
73779;SDS011;62093;37.614;15.072;2022-09-09T04:48:14;9.55;;;2.70;;
73779;SDS011;62093;37.614;15.072;2022-09-09T04:50:40;8.70;;;2.20;;
73779;SDS011;62093;37.614;15.072;2022-09-09T04:53:08;7.43;;;2.57;;
73779;SDS011;62093;37.614;15.072;2022-09-09T04:55:36;9.13;;;2.40;;
73779;SDS011;62093;37.614;15.072;2022-09-09T04:58:04;6.95;;;2.17;;
73779;SDS011;62093;37.614;15.072;2022-09-09T05:00:31;7.38;;;2.00;;
73779;SDS011;62093;37.614;15.072;2022-09-09T05:03:02;7.70;;;2.53;;
73779;SDS011;62093;37.614;15.072;2022-09-09T05:05:33;8.77;;;2.30;;
73779;SDS011;62093;37.614;15.072;2022-09-09T05:08:03;9.77;;;2.40;;
73779;SDS011;62093;37.614;15.072;2022-09-09T05:10:30;8.48;;;2.50;;
73779;SDS011;62093;37.614;15.072;2022-09-09T05:12:58;9.45;;;2.20;;
73779;SDS011;62093;37.614;15.072;2022-09-09T05:15:26;8.52;;;2.55;;
73779;SDS011;62093;37.614;15.072;2022-09-09T05:17:52;7.03;;;2.40;;
73779;SDS011;62093;37.614;15.072;2022-09-09T05:20:19;7.63;;;2.33;;
73779;SDS011;62093;37.614;15.072;2022-09-09T05:22:45;7.78;;;2.63;;
73779;SDS011;62093;37.614;15.072;2022-09-09T05:25:11;9.15;;;2.60;;
73779;SDS011;62093;37.614;15.072;2022-09-09T05:27:37;9.07;;;2.30;;
73779;SDS011;62093;37.614;15.072;2022-09-09T05:30:03;8.85;;;2.30;;
73779;SDS011;62093;37.614;15.072;2022-09-09T05:32:30;9.82;;;2.55;;
73779;SDS011;62093;37.614;15.072;2022-09-09T05:35:00;8.40;;;2.55;;
73779;SDS011;62093;37.614;15.072;2022-09-09T05:37:27;8.32;;;2.50;;
73779;SDS011;62093;37.614;15.072;2022-09-09T05:39:56;8.50;;;2.30;;
73779;SDS011;62093;37.614;15.072;2022-09-09T05:42:21;7.70;;;2.65;;
73779;SDS011;62093;37.614;15.072;2022-09-09T05:44:47;7.05;;;2.03;;
73779;SDS011;62093;37.614;15.072;2022-09-09T05:47:13;8.43;;;2.47;;
73779;SDS011;62093;37.614;15.072;2022-09-09T05:49:41;8.88;;;2.40;;
73779;SDS011;62093;37.614;15.072;2022-09-09T05:52:07;8.95;;;2.63;;
73779;SDS011;62093;37.614;15.072;2022-09-09T05:54:34;7.60;;;1.95;;
73779;SDS011;62093;37.614;15.072;2022-09-09T05:57:01;9.13;;;2.70;;
73779;SDS011;62093;37.614;15.072;2022-09-09T05:59:28;7.03;;;2.40;;
73779;SDS011;62093;37.614;15.072;2022-09-09T06:01:55;7.57;;;2.28;;
73779;SDS011;62093;37.614;15.072;2022-09-09T06:04:30;7.95;;;2.13;;
73779;SDS011;62093;37.614;15.072;2022-09-09T06:06:59;8.27;;;2.70;;
73779;SDS011;62093;37.614;15.072;2022-09-09T06:09:24;10.63;;;2.57;;
73779;SDS011;62093;37.614;15.072;2022-09-09T06:11:50;8.52;;;2.58;;
73779;SDS011;62093;37.614;15.072;2022-09-09T06:14:18;7.47;;;2.35;;
73779;SDS011;62093;37.614;15.072;2022-09-09T06:16:46;8.13;;;2.10;;
73779;SDS011;62093;37.614;15.072;2022-09-09T06:19:19;7.32;;;2.55;;
73779;SDS011;62093;37.614;15.072;2022-09-09T06:21:46;6.82;;;1.92;;
73779;SDS011;62093;37.614;15.072;2022-09-09T06:24:13;7.82;;;2.50;;
73779;SDS011;62093;37.614;15.072;2022-09-09T06:26:43;9.60;;;2.28;;
73779;SDS011;62093;37.614;15.072;2022-09-09T06:29:12;8.53;;;2.43;;
73779;SDS011;62093;37.614;15.072;2022-09-09T06:31:40;7.22;;;2.28;;
73779;SDS011;62093;37.614;15.072;2022-09-09T06:34:15;9.38;;;2.90;;
73779;SDS011;62093;37.614;15.072;2022-09-09T06:36:45;7.43;;;2.33;;
73779;SDS011;62093;37.614;15.072;2022-09-09T06:39:12;10.02;;;2.42;;
73779;SDS011;62093;37.614;15.072;2022-09-09T06:41:39;10.93;;;2.60;;
73779;SDS011;62093;37.614;15.072;2022-09-09T06:44:09;8.15;;;2.70;;
73779;SDS011;62093;37.614;15.072;2022-09-09T06:46:41;9.32;;;2.40;;
73779;SDS011;62093;37.614;15.072;2022-09-09T06:49:09;10.25;;;2.50;;
73779;SDS011;62093;37.614;15.072;2022-09-09T06:51:36;7.38;;;2.15;;
73779;SDS011;62093;37.614;15.072;2022-09-09T06:54:09;6.93;;;2.30;;
73779;SDS011;62093;37.614;15.072;2022-09-09T06:56:37;10.18;;;2.63;;
73779;SDS011;62093;37.614;15.072;2022-09-09T06:59:14;7.07;;;2.13;;
73779;SDS011;62093;37.614;15.072;2022-09-09T07:01:41;6.72;;;2.35;;
73779;SDS011;62093;37.614;15.072;2022-09-09T07:04:13;9.82;;;2.33;;
73779;SDS011;62093;37.614;15.072;2022-09-09T07:06:42;8.87;;;2.53;;
73779;SDS011;62093;37.614;15.072;2022-09-09T07:09:14;8.32;;;2.50;;
73779;SDS011;62093;37.614;15.072;2022-09-09T07:11:45;7.10;;;2.25;;
73779;SDS011;62093;37.614;15.072;2022-09-09T07:14:14;7.10;;;2.30;;
73779;SDS011;62093;37.614;15.072;2022-09-09T07:16:44;10.52;;;2.75;;
73779;SDS011;62093;37.614;15.072;2022-09-09T07:19:12;6.43;;;2.47;;
73779;SDS011;62093;37.614;15.072;2022-09-09T07:21:40;10.00;;;2.50;;
73779;SDS011;62093;37.614;15.072;2022-09-09T07:24:07;8.98;;;2.35;;
73779;SDS011;62093;37.614;15.072;2022-09-09T07:26:36;9.00;;;2.50;;
73779;SDS011;62093;37.614;15.072;2022-09-09T07:29:04;8.25;;;2.42;;
73779;SDS011;62093;37.614;15.072;2022-09-09T07:31:32;6.17;;;2.20;;
73779;SDS011;62093;37.614;15.072;2022-09-09T07:34:00;9.55;;;2.60;;
73779;SDS011;62093;37.614;15.072;2022-09-09T07:39:36;7.50;;;2.47;;
73779;SDS011;62093;37.614;15.072;2022-09-09T07:42:02;7.47;;;2.15;;
73779;SDS011;62093;37.614;15.072;2022-09-09T07:44:30;8.00;;;2.30;;
73779;SDS011;62093;37.614;15.072;2022-09-09T07:47:07;9.18;;;2.50;;
73779;SDS011;62093;37.614;15.072;2022-09-09T07:49:38;8.20;;;2.50;;
73779;SDS011;62093;37.614;15.072;2022-09-09T07:52:06;8.25;;;2.70;;
73779;SDS011;62093;37.614;15.072;2022-09-09T07:54:32;6.90;;;2.40;;
73779;SDS011;62093;37.614;15.072;2022-09-09T07:56:59;8.60;;;2.47;;
73779;SDS011;62093;37.614;15.072;2022-09-09T07:59:28;7.05;;;2.17;;
73779;SDS011;62093;37.614;15.072;2022-09-09T08:01:56;7.90;;;2.72;;
73779;SDS011;62093;37.614;15.072;2022-09-09T08:04:27;8.82;;;2.58;;
73779;SDS011;62093;37.614;15.072;2022-09-09T08:06:58;9.23;;;2.40;;
73779;SDS011;62093;37.614;15.072;2022-09-09T08:09:28;8.47;;;2.30;;
73779;SDS011;62093;37.614;15.072;2022-09-09T08:12:00;9.60;;;2.15;;
73779;SDS011;62093;37.614;15.072;2022-09-09T08:14:28;7.70;;;2.20;;
73779;SDS011;62093;37.614;15.072;2022-09-09T08:16:56;6.90;;;2.40;;
73779;SDS011;62093;37.614;15.072;2022-09-09T08:19:25;8.23;;;2.58;;
73779;SDS011;62093;37.614;15.072;2022-09-09T08:21:52;8.67;;;2.40;;
73779;SDS011;62093;37.614;15.072;2022-09-09T08:24:18;8.85;;;2.17;;
73779;SDS011;62093;37.614;15.072;2022-09-09T08:26:47;7.30;;;2.38;;
73779;SDS011;62093;37.614;15.072;2022-09-09T08:29:16;8.80;;;2.00;;
73779;SDS011;62093;37.614;15.072;2022-09-09T08:31:45;6.37;;;2.27;;
73779;SDS011;62093;37.614;15.072;2022-09-09T08:34:12;6.50;;;2.47;;
73779;SDS011;62093;37.614;15.072;2022-09-09T08:36:42;8.80;;;2.15;;
73779;SDS011;62093;37.614;15.072;2022-09-09T08:39:11;10.25;;;2.40;;
73779;SDS011;62093;37.614;15.072;2022-09-09T08:44:27;9.23;;;2.20;;
73779;SDS011;62093;37.614;15.072;2022-09-09T08:47:06;7.53;;;2.22;;
73779;SDS011;62093;37.614;15.072;2022-09-09T08:49:50;8.50;;;2.20;;
73779;SDS011;62093;37.614;15.072;2022-09-09T08:57:52;7.30;;;2.10;;
73779;SDS011;62093;37.614;15.072;2022-09-09T09:00:21;6.95;;;2.17;;
73779;SDS011;62093;37.614;15.072;2022-09-09T09:02:58;6.28;;;2.38;;
73779;SDS011;62093;37.614;15.072;2022-09-09T09:05:59;9.20;;;2.50;;
73779;SDS011;62093;37.614;15.072;2022-09-09T09:08:55;7.38;;;2.40;;
73779;SDS011;62093;37.614;15.072;2022-09-09T09:11:33;7.73;;;2.67;;
73779;SDS011;62093;37.614;15.072;2022-09-09T09:14:02;8.48;;;2.35;;
73779;SDS011;62093;37.614;15.072;2022-09-09T09:19:15;8.93;;;2.70;;
73779;SDS011;62093;37.614;15.072;2022-09-09T09:21:45;8.52;;;2.30;;
73779;SDS011;62093;37.614;15.072;2022-09-09T09:24:33;5.67;;;1.90;;
73779;SDS011;62093;37.614;15.072;2022-09-09T09:27:14;5.82;;;2.20;;
73779;SDS011;62093;37.614;15.072;2022-09-09T09:29:48;6.75;;;2.42;;
73779;SDS011;62093;37.614;15.072;2022-09-09T09:32:18;8.50;;;2.80;;
73779;SDS011;62093;37.614;15.072;2022-09-09T09:34:51;8.13;;;2.35;;
73779;SDS011;62093;37.614;15.072;2022-09-09T09:37:25;8.17;;;2.30;;
73779;SDS011;62093;37.614;15.072;2022-09-09T09:39:56;7.60;;;2.30;;
73779;SDS011;62093;37.614;15.072;2022-09-09T09:42:32;7.97;;;2.40;;
73779;SDS011;62093;37.614;15.072;2022-09-09T09:45:16;8.57;;;2.45;;
73779;SDS011;62093;37.614;15.072;2022-09-09T09:47:57;6.45;;;2.60;;
73779;SDS011;62093;37.614;15.072;2022-09-09T09:50:46;7.63;;;2.40;;
73779;SDS011;62093;37.614;15.072;2022-09-09T09:53:20;8.07;;;2.60;;
73779;SDS011;62093;37.614;15.072;2022-09-09T09:55:52;6.55;;;2.42;;
73779;SDS011;62093;37.614;15.072;2022-09-09T09:58:22;7.50;;;2.38;;
73779;SDS011;62093;37.614;15.072;2022-09-09T10:00:51;7.35;;;2.60;;
73779;SDS011;62093;37.614;15.072;2022-09-09T10:03:24;7.57;;;2.17;;
73779;SDS011;62093;37.614;15.072;2022-09-09T10:05:55;7.60;;;2.45;;
73779;SDS011;62093;37.614;15.072;2022-09-09T10:08:22;7.82;;;2.33;;
73779;SDS011;62093;37.614;15.072;2022-09-09T10:10:54;6.45;;;2.35;;
73779;SDS011;62093;37.614;15.072;2022-09-09T10:13:51;7.47;;;2.40;;
73779;SDS011;62093;37.614;15.072;2022-09-09T10:19:05;7.63;;;2.60;;
73779;SDS011;62093;37.614;15.072;2022-09-09T10:35:11;7.90;;;2.22;;
73779;SDS011;62093;37.614;15.072;2022-09-09T10:38:13;6.80;;;2.40;;
73779;SDS011;62093;37.614;15.072;2022-09-09T10:46:00;10.02;;;2.67;;
73779;SDS011;62093;37.614;15.072;2022-09-09T10:48:31;5.38;;;2.15;;
73779;SDS011;62093;37.614;15.072;2022-09-09T10:54:17;7.93;;;2.50;;
73779;SDS011;62093;37.614;15.072;2022-09-09T10:57:08;5.87;;;2.20;;
73779;SDS011;62093;37.614;15.072;2022-09-09T10:59:42;6.22;;;2.50;;
73779;SDS011;62093;37.614;15.072;2022-09-09T11:02:19;6.30;;;2.25;;
73779;SDS011;62093;37.614;15.072;2022-09-09T11:04:57;8.75;;;2.70;;
73779;SDS011;62093;37.614;15.072;2022-09-09T11:07:25;6.85;;;2.33;;
73779;SDS011;62093;37.614;15.072;2022-09-09T11:10:00;7.70;;;2.40;;
73779;SDS011;62093;37.614;15.072;2022-09-09T11:12:31;7.70;;;2.65;;
73779;SDS011;62093;37.614;15.072;2022-09-09T11:15:05;7.03;;;2.60;;
73779;SDS011;62093;37.614;15.072;2022-09-09T11:17:44;7.18;;;2.60;;
73779;SDS011;62093;37.614;15.072;2022-09-09T11:20:14;6.57;;;2.65;;
73779;SDS011;62093;37.614;15.072;2022-09-09T11:22:51;6.07;;;2.40;;
73779;SDS011;62093;37.614;15.072;2022-09-09T11:25:48;8.48;;;2.45;;
73779;SDS011;62093;37.614;15.072;2022-09-09T11:28:22;8.20;;;2.67;;
73779;SDS011;62093;37.614;15.072;2022-09-09T11:40:57;7.50;;;2.45;;
73779;SDS011;62093;37.614;15.072;2022-09-09T11:46:12;7.73;;;2.60;;
73779;SDS011;62093;37.614;15.072;2022-09-09T11:48:57;6.60;;;2.25;;
73779;SDS011;62093;37.614;15.072;2022-09-09T11:51:26;8.00;;;2.50;;
73779;SDS011;62093;37.614;15.072;2022-09-09T12:01:44;7.75;;;2.17;;
73779;SDS011;62093;37.614;15.072;2022-09-09T12:12:07;8.02;;;2.45;;
73779;SDS011;62093;37.614;15.072;2022-09-09T12:15:00;8.20;;;2.30;;
73779;SDS011;62093;37.614;15.072;2022-09-09T12:17:28;8.45;;;2.53;;
73779;SDS011;62093;37.614;15.072;2022-09-09T12:28:36;7.78;;;2.47;;
73779;SDS011;62093;37.614;15.072;2022-09-09T12:33:54;10.70;;;2.30;;
73779;SDS011;62093;37.614;15.072;2022-09-09T12:36:28;8.67;;;2.30;;
73779;SDS011;62093;37.614;15.072;2022-09-09T12:38:56;10.45;;;2.33;;
73779;SDS011;62093;37.614;15.072;2022-09-09T12:41:27;9.35;;;2.22;;
73779;SDS011;62093;37.614;15.072;2022-09-09T12:44:06;7.22;;;2.33;;
73779;SDS011;62093;37.614;15.072;2022-09-09T12:46:35;10.63;;;2.60;;
73779;SDS011;62093;37.614;15.072;2022-09-09T12:49:04;7.43;;;2.42;;
73779;SDS011;62093;37.614;15.072;2022-09-09T12:51:32;8.32;;;2.50;;
73779;SDS011;62093;37.614;15.072;2022-09-09T12:53:59;10.27;;;2.03;;
73779;SDS011;62093;37.614;15.072;2022-09-09T12:56:26;9.10;;;2.67;;
73779;SDS011;62093;37.614;15.072;2022-09-09T13:02:18;8.73;;;2.10;;
73779;SDS011;62093;37.614;15.072;2022-09-09T13:04:46;8.45;;;2.58;;
73779;SDS011;62093;37.614;15.072;2022-09-09T13:07:14;8.60;;;2.25;;
73779;SDS011;62093;37.614;15.072;2022-09-09T13:09:41;7.70;;;2.20;;
73779;SDS011;62093;37.614;15.072;2022-09-09T13:12:11;8.40;;;2.30;;
73779;SDS011;62093;37.614;15.072;2022-09-09T13:14:42;8.75;;;2.10;;
73779;SDS011;62093;37.614;15.072;2022-09-09T13:17:17;6.32;;;2.47;;
73779;SDS011;62093;37.614;15.072;2022-09-09T13:19:47;8.52;;;2.20;;
73779;SDS011;62093;37.614;15.072;2022-09-09T13:22:26;7.15;;;2.33;;
73779;SDS011;62093;37.614;15.072;2022-09-09T13:25:05;8.97;;;2.90;;
73779;SDS011;62093;37.614;15.072;2022-09-09T13:35:31;8.35;;;2.20;;
73779;SDS011;62093;37.614;15.072;2022-09-09T13:37:58;8.10;;;2.57;;
73779;SDS011;62093;37.614;15.072;2022-09-09T13:40:25;9.52;;;2.40;;
73779;SDS011;62093;37.614;15.072;2022-09-09T13:42:52;8.27;;;2.25;;
73779;SDS011;62093;37.614;15.072;2022-09-09T13:45:23;8.15;;;2.78;;
73779;SDS011;62093;37.614;15.072;2022-09-09T13:47:52;10.00;;;2.65;;
73779;SDS011;62093;37.614;15.072;2022-09-09T13:52:49;7.50;;;2.30;;
73779;SDS011;62093;37.614;15.072;2022-09-09T13:55:18;7.97;;;2.53;;
73779;SDS011;62093;37.614;15.072;2022-09-09T13:57:56;6.60;;;2.60;;
73779;SDS011;62093;37.614;15.072;2022-09-09T14:00:23;7.82;;;2.20;;
73779;SDS011;62093;37.614;15.072;2022-09-09T14:02:52;7.17;;;2.30;;
73779;SDS011;62093;37.614;15.072;2022-09-09T14:05:20;9.80;;;2.58;;
73779;SDS011;62093;37.614;15.072;2022-09-09T14:07:47;11.00;;;2.50;;
73779;SDS011;62093;37.614;15.072;2022-09-09T14:10:14;8.40;;;2.58;;
73779;SDS011;62093;37.614;15.072;2022-09-09T14:12:39;7.20;;;2.53;;
73779;SDS011;62093;37.614;15.072;2022-09-09T14:15:05;7.43;;;2.33;;
73779;SDS011;62093;37.614;15.072;2022-09-09T14:17:33;6.43;;;2.10;;
73779;SDS011;62093;37.614;15.072;2022-09-09T14:20:02;10.60;;;2.20;;
73779;SDS011;62093;37.614;15.072;2022-09-09T14:22:33;6.88;;;2.38;;
73779;SDS011;62093;37.614;15.072;2022-09-09T14:24:59;6.95;;;2.28;;
73779;SDS011;62093;37.614;15.072;2022-09-09T14:27:25;7.97;;;2.50;;
73779;SDS011;62093;37.614;15.072;2022-09-09T14:29:53;6.60;;;2.50;;
73779;SDS011;62093;37.614;15.072;2022-09-09T14:32:19;6.20;;;2.33;;
73779;SDS011;62093;37.614;15.072;2022-09-09T14:34:46;7.90;;;2.50;;
73779;SDS011;62093;37.614;15.072;2022-09-09T14:37:15;7.72;;;2.40;;
73779;SDS011;62093;37.614;15.072;2022-09-09T14:39:42;6.28;;;2.38;;
73779;SDS011;62093;37.614;15.072;2022-09-09T14:42:09;7.55;;;2.40;;
73779;SDS011;62093;37.614;15.072;2022-09-09T14:44:36;7.17;;;2.60;;
73779;SDS011;62093;37.614;15.072;2022-09-09T14:47:06;6.43;;;2.10;;
73779;SDS011;62093;37.614;15.072;2022-09-09T14:49:36;6.40;;;2.50;;
73779;SDS011;62093;37.614;15.072;2022-09-09T14:52:03;7.95;;;2.10;;
73779;SDS011;62093;37.614;15.072;2022-09-09T14:54:30;6.22;;;2.45;;
73779;SDS011;62093;37.614;15.072;2022-09-09T14:56:57;6.27;;;2.33;;
73779;SDS011;62093;37.614;15.072;2022-09-09T14:59:24;6.55;;;2.40;;
73779;SDS011;62093;37.614;15.072;2022-09-09T15:01:50;7.35;;;2.35;;
73779;SDS011;62093;37.614;15.072;2022-09-09T15:04:16;5.88;;;2.38;;
73779;SDS011;62093;37.614;15.072;2022-09-09T15:06:43;6.80;;;2.30;;
73779;SDS011;62093;37.614;15.072;2022-09-09T15:09:13;6.50;;;2.38;;
73779;SDS011;62093;37.614;15.072;2022-09-09T15:11:40;6.63;;;2.63;;
73779;SDS011;62093;37.614;15.072;2022-09-09T15:14:08;7.13;;;2.35;;
73779;SDS011;62093;37.614;15.072;2022-09-09T15:16:34;6.45;;;1.88;;
73779;SDS011;62093;37.614;15.072;2022-09-09T15:19:01;8.07;;;2.03;;
73779;SDS011;62093;37.614;15.072;2022-09-09T15:21:28;5.95;;;1.92;;
73779;SDS011;62093;37.614;15.072;2022-09-09T15:23:57;6.78;;;2.50;;
73779;SDS011;62093;37.614;15.072;2022-09-09T15:26:24;7.68;;;2.28;;
73779;SDS011;62093;37.614;15.072;2022-09-09T15:28:51;6.88;;;2.40;;
73779;SDS011;62093;37.614;15.072;2022-09-09T15:31:20;6.83;;;2.20;;
73779;SDS011;62093;37.614;15.072;2022-09-09T15:33:51;6.28;;;2.53;;
73779;SDS011;62093;37.614;15.072;2022-09-09T15:36:20;7.28;;;2.22;;
73779;SDS011;62093;37.614;15.072;2022-09-09T15:38:46;8.48;;;2.42;;
73779;SDS011;62093;37.614;15.072;2022-09-09T15:41:12;7.90;;;2.60;;
73779;SDS011;62093;37.614;15.072;2022-09-09T15:43:39;6.23;;;2.27;;
73779;SDS011;62093;37.614;15.072;2022-09-09T15:48:43;7.28;;;2.40;;
73779;SDS011;62093;37.614;15.072;2022-09-09T15:51:10;7.25;;;2.20;;
73779;SDS011;62093;37.614;15.072;2022-09-09T15:53:36;5.22;;;2.13;;
73779;SDS011;62093;37.614;15.072;2022-09-09T15:56:05;7.30;;;2.20;;
73779;SDS011;62093;37.614;15.072;2022-09-09T15:58:34;6.75;;;2.50;;
73779;SDS011;62093;37.614;15.072;2022-09-09T16:01:04;7.60;;;2.13;;
73779;SDS011;62093;37.614;15.072;2022-09-09T16:03:41;10.38;;;2.50;;
73779;SDS011;62093;37.614;15.072;2022-09-09T16:06:08;11.07;;;3.30;;
73779;SDS011;62093;37.614;15.072;2022-09-09T16:08:38;13.40;;;4.10;;
73779;SDS011;62093;37.614;15.072;2022-09-09T16:11:13;15.13;;;4.25;;
73779;SDS011;62093;37.614;15.072;2022-09-09T16:13:41;15.60;;;4.10;;
73779;SDS011;62093;37.614;15.072;2022-09-09T16:16:11;14.82;;;3.45;;
73779;SDS011;62093;37.614;15.072;2022-09-09T16:18:46;12.55;;;3.90;;
73779;SDS011;62093;37.614;15.072;2022-09-09T16:21:15;18.97;;;4.43;;
73779;SDS011;62093;37.614;15.072;2022-09-09T16:23:42;16.55;;;3.70;;
73779;SDS011;62093;37.614;15.072;2022-09-09T16:26:13;20.67;;;4.07;;
73779;SDS011;62093;37.614;15.072;2022-09-09T16:28:40;17.10;;;4.30;;
73779;SDS011;62093;37.614;15.072;2022-09-09T16:31:06;19.20;;;4.07;;
73779;SDS011;62093;37.614;15.072;2022-09-09T16:33:35;29.60;;;11.77;;
73779;SDS011;62093;37.614;15.072;2022-09-09T16:36:06;33.33;;;12.05;;
73779;SDS011;62093;37.614;15.072;2022-09-09T16:38:33;36.90;;;11.73;;
73779;SDS011;62093;37.614;15.072;2022-09-09T16:41:01;36.33;;;11.40;;
73779;SDS011;62093;37.614;15.072;2022-09-09T16:43:28;38.53;;;12.98;;
73779;SDS011;62093;37.614;15.072;2022-09-09T16:45:54;38.47;;;11.00;;
73779;SDS011;62093;37.614;15.072;2022-09-09T16:48:20;28.95;;;10.85;;
73779;SDS011;62093;37.614;15.072;2022-09-09T16:50:45;30.00;;;9.80;;
73779;SDS011;62093;37.614;15.072;2022-09-09T16:53:11;24.52;;;9.45;;
73779;SDS011;62093;37.614;15.072;2022-09-09T16:55:38;23.88;;;8.75;;
73779;SDS011;62093;37.614;15.072;2022-09-09T16:58:05;25.83;;;8.65;;
73779;SDS011;62093;37.614;15.072;2022-09-09T17:00:32;22.95;;;8.13;;